sensor_id;sensor_type;location;lat;lon;timestamp;P1;durP1;ratioP1;P2;durP2;ratioP2
69414;SDS011;56608;43.530;-5.652;2023-04-06T00:00:32;5.60;;;3.43;;
69414;SDS011;56608;43.530;-5.652;2023-04-06T00:01:34;5.60;;;2.95;;
69414;SDS011;56608;43.530;-5.652;2023-04-06T00:02:36;4.93;;;3.40;;
69414;SDS011;56608;43.530;-5.652;2023-04-06T00:03:37;7.30;;;3.40;;
69414;SDS011;56608;43.530;-5.652;2023-04-06T00:04:38;8.40;;;3.33;;
69414;SDS011;56608;43.530;-5.652;2023-04-06T00:05:40;7.53;;;3.58;;
69414;SDS011;56608;43.530;-5.652;2023-04-06T00:06:42;5.80;;;3.70;;
69414;SDS011;56608;43.530;-5.652;2023-04-06T00:07:44;5.97;;;3.30;;
69414;SDS011;56608;43.530;-5.652;2023-04-06T00:08:44;6.97;;;3.77;;
69414;SDS011;56608;43.530;-5.652;2023-04-06T00:09:46;5.05;;;3.12;;
69414;SDS011;56608;43.530;-5.652;2023-04-06T00:10:47;7.80;;;3.62;;
69414;SDS011;56608;43.530;-5.652;2023-04-06T00:11:49;6.47;;;3.20;;
69414;SDS011;56608;43.530;-5.652;2023-04-06T00:13:51;4.22;;;2.97;;
69414;SDS011;56608;43.530;-5.652;2023-04-06T00:14:53;5.85;;;3.12;;
69414;SDS011;56608;43.530;-5.652;2023-04-06T00:15:54;5.80;;;3.30;;
69414;SDS011;56608;43.530;-5.652;2023-04-06T00:16:56;10.05;;;3.70;;
69414;SDS011;56608;43.530;-5.652;2023-04-06T00:17:57;6.25;;;3.25;;
69414;SDS011;56608;43.530;-5.652;2023-04-06T00:18:58;5.90;;;3.60;;
69414;SDS011;56608;43.530;-5.652;2023-04-06T00:20:00;8.43;;;3.30;;
69414;SDS011;56608;43.530;-5.652;2023-04-06T00:21:01;7.90;;;3.72;;
69414;SDS011;56608;43.530;-5.652;2023-04-06T00:22:02;5.67;;;3.57;;
69414;SDS011;56608;43.530;-5.652;2023-04-06T00:23:04;6.57;;;3.62;;
69414;SDS011;56608;43.530;-5.652;2023-04-06T00:24:05;7.97;;;4.45;;
69414;SDS011;56608;43.530;-5.652;2023-04-06T00:25:07;4.30;;;3.10;;
69414;SDS011;56608;43.530;-5.652;2023-04-06T00:26:09;7.45;;;3.70;;
69414;SDS011;56608;43.530;-5.652;2023-04-06T00:27:11;6.18;;;3.12;;
69414;SDS011;56608;43.530;-5.652;2023-04-06T00:28:12;5.67;;;3.40;;
69414;SDS011;56608;43.530;-5.652;2023-04-06T00:29:14;6.97;;;3.25;;
69414;SDS011;56608;43.530;-5.652;2023-04-06T00:30:16;7.30;;;3.70;;
69414;SDS011;56608;43.530;-5.652;2023-04-06T00:31:17;6.85;;;3.25;;
69414;SDS011;56608;43.530;-5.652;2023-04-06T00:32:19;5.75;;;3.33;;
69414;SDS011;56608;43.530;-5.652;2023-04-06T00:33:20;6.10;;;3.65;;
69414;SDS011;56608;43.530;-5.652;2023-04-06T00:34:22;4.43;;;3.30;;
69414;SDS011;56608;43.530;-5.652;2023-04-06T00:35:24;5.80;;;3.10;;
69414;SDS011;56608;43.530;-5.652;2023-04-06T00:36:25;4.80;;;3.20;;
69414;SDS011;56608;43.530;-5.652;2023-04-06T00:38:28;6.37;;;3.47;;
69414;SDS011;56608;43.530;-5.652;2023-04-06T00:39:29;5.50;;;3.40;;
69414;SDS011;56608;43.530;-5.652;2023-04-06T00:40:31;6.78;;;3.17;;
69414;SDS011;56608;43.530;-5.652;2023-04-06T00:41:33;5.15;;;3.15;;
69414;SDS011;56608;43.530;-5.652;2023-04-06T00:42:35;7.68;;;3.97;;
69414;SDS011;56608;43.530;-5.652;2023-04-06T00:44:38;8.13;;;3.40;;
69414;SDS011;56608;43.530;-5.652;2023-04-06T00:45:40;6.97;;;3.28;;
69414;SDS011;56608;43.530;-5.652;2023-04-06T00:46:42;7.37;;;3.65;;
69414;SDS011;56608;43.530;-5.652;2023-04-06T00:47:43;5.33;;;3.23;;
69414;SDS011;56608;43.530;-5.652;2023-04-06T00:48:45;10.43;;;5.87;;
69414;SDS011;56608;43.530;-5.652;2023-04-06T00:49:47;16.83;;;9.23;;
69414;SDS011;56608;43.530;-5.652;2023-04-06T00:50:48;8.07;;;3.50;;
69414;SDS011;56608;43.530;-5.652;2023-04-06T00:51:50;8.95;;;3.90;;
69414;SDS011;56608;43.530;-5.652;2023-04-06T00:52:52;4.35;;;3.20;;
69414;SDS011;56608;43.530;-5.652;2023-04-06T00:53:54;3.25;;;2.90;;
69414;SDS011;56608;43.530;-5.652;2023-04-06T00:55:57;6.00;;;3.00;;
69414;SDS011;56608;43.530;-5.652;2023-04-06T00:56:58;4.82;;;2.87;;
69414;SDS011;56608;43.530;-5.652;2023-04-06T00:57:59;4.20;;;2.90;;
69414;SDS011;56608;43.530;-5.652;2023-04-06T00:59:02;4.95;;;2.80;;
69414;SDS011;56608;43.530;-5.652;2023-04-06T01:00:03;5.85;;;3.10;;
69414;SDS011;56608;43.530;-5.652;2023-04-06T01:01:05;5.95;;;3.35;;
69414;SDS011;56608;43.530;-5.652;2023-04-06T01:02:07;5.97;;;3.10;;
69414;SDS011;56608;43.530;-5.652;2023-04-06T01:03:09;4.75;;;3.28;;
69414;SDS011;56608;43.530;-5.652;2023-04-06T01:04:11;4.90;;;3.15;;
69414;SDS011;56608;43.530;-5.652;2023-04-06T01:05:12;4.50;;;3.27;;
69414;SDS011;56608;43.530;-5.652;2023-04-06T01:06:13;5.82;;;3.45;;
69414;SDS011;56608;43.530;-5.652;2023-04-06T01:07:15;7.95;;;3.30;;
69414;SDS011;56608;43.530;-5.652;2023-04-06T01:08:16;6.30;;;3.40;;
69414;SDS011;56608;43.530;-5.652;2023-04-06T01:09:18;7.35;;;3.10;;
69414;SDS011;56608;43.530;-5.652;2023-04-06T01:10:26;3.70;;;3.20;;
69414;SDS011;56608;43.530;-5.652;2023-04-06T01:11:28;4.90;;;2.70;;
69414;SDS011;56608;43.530;-5.652;2023-04-06T01:12:30;6.32;;;3.15;;
69414;SDS011;56608;43.530;-5.652;2023-04-06T01:13:31;5.60;;;3.47;;
69414;SDS011;56608;43.530;-5.652;2023-04-06T01:14:33;5.60;;;2.83;;
69414;SDS011;56608;43.530;-5.652;2023-04-06T01:15:35;4.00;;;2.67;;
69414;SDS011;56608;43.530;-5.652;2023-04-06T01:16:39;7.55;;;3.28;;
69414;SDS011;56608;43.530;-5.652;2023-04-06T01:17:41;5.90;;;3.45;;
69414;SDS011;56608;43.530;-5.652;2023-04-06T01:18:42;7.43;;;3.53;;
69414;SDS011;56608;43.530;-5.652;2023-04-06T01:19:44;8.48;;;3.95;;
69414;SDS011;56608;43.530;-5.652;2023-04-06T01:20:46;7.03;;;4.15;;
69414;SDS011;56608;43.530;-5.652;2023-04-06T01:21:47;5.68;;;3.90;;
69414;SDS011;56608;43.530;-5.652;2023-04-06T01:22:51;7.15;;;4.45;;
69414;SDS011;56608;43.530;-5.652;2023-04-06T01:23:51;7.00;;;4.10;;
69414;SDS011;56608;43.530;-5.652;2023-04-06T01:24:53;6.43;;;4.55;;
69414;SDS011;56608;43.530;-5.652;2023-04-06T01:25:54;7.30;;;4.50;;
69414;SDS011;56608;43.530;-5.652;2023-04-06T01:26:56;7.65;;;4.25;;
69414;SDS011;56608;43.530;-5.652;2023-04-06T01:27:56;7.90;;;4.80;;
69414;SDS011;56608;43.530;-5.652;2023-04-06T01:28:58;6.78;;;4.47;;
69414;SDS011;56608;43.530;-5.652;2023-04-06T01:30:00;7.80;;;4.75;;
69414;SDS011;56608;43.530;-5.652;2023-04-06T01:31:02;7.70;;;4.82;;
69414;SDS011;56608;43.530;-5.652;2023-04-06T01:32:03;6.22;;;4.90;;
69414;SDS011;56608;43.530;-5.652;2023-04-06T01:33:05;8.27;;;5.15;;
69414;SDS011;56608;43.530;-5.652;2023-04-06T01:34:07;10.07;;;4.90;;
69414;SDS011;56608;43.530;-5.652;2023-04-06T01:35:08;8.30;;;5.50;;
69414;SDS011;56608;43.530;-5.652;2023-04-06T01:36:09;8.20;;;5.50;;
69414;SDS011;56608;43.530;-5.652;2023-04-06T01:37:11;8.20;;;5.00;;
69414;SDS011;56608;43.530;-5.652;2023-04-06T01:38:12;10.43;;;5.90;;
69414;SDS011;56608;43.530;-5.652;2023-04-06T01:39:14;12.37;;;6.03;;
69414;SDS011;56608;43.530;-5.652;2023-04-06T01:40:15;14.00;;;5.87;;
69414;SDS011;56608;43.530;-5.652;2023-04-06T01:41:17;7.12;;;4.65;;
69414;SDS011;56608;43.530;-5.652;2023-04-06T01:42:18;6.85;;;3.85;;
69414;SDS011;56608;43.530;-5.652;2023-04-06T01:43:19;5.60;;;3.40;;
69414;SDS011;56608;43.530;-5.652;2023-04-06T01:44:21;5.50;;;3.87;;
69414;SDS011;56608;43.530;-5.652;2023-04-06T01:45:22;5.85;;;3.40;;
69414;SDS011;56608;43.530;-5.652;2023-04-06T01:46:24;5.50;;;3.55;;
69414;SDS011;56608;43.530;-5.652;2023-04-06T01:47:25;5.25;;;3.58;;
69414;SDS011;56608;43.530;-5.652;2023-04-06T01:48:26;6.40;;;4.05;;
69414;SDS011;56608;43.530;-5.652;2023-04-06T01:49:28;6.53;;;4.05;;
69414;SDS011;56608;43.530;-5.652;2023-04-06T01:50:29;5.75;;;3.75;;
69414;SDS011;56608;43.530;-5.652;2023-04-06T01:51:31;5.15;;;3.70;;
69414;SDS011;56608;43.530;-5.652;2023-04-06T01:52:33;5.30;;;3.70;;
69414;SDS011;56608;43.530;-5.652;2023-04-06T01:54:35;10.18;;;4.30;;
69414;SDS011;56608;43.530;-5.652;2023-04-06T01:55:37;9.82;;;4.05;;
69414;SDS011;56608;43.530;-5.652;2023-04-06T01:56:37;6.80;;;4.70;;
69414;SDS011;56608;43.530;-5.652;2023-04-06T01:57:39;7.70;;;4.45;;
69414;SDS011;56608;43.530;-5.652;2023-04-06T01:58:41;5.85;;;3.83;;
69414;SDS011;56608;43.530;-5.652;2023-04-06T01:59:42;6.30;;;3.95;;
69414;SDS011;56608;43.530;-5.652;2023-04-06T02:00:44;5.53;;;3.97;;
69414;SDS011;56608;43.530;-5.652;2023-04-06T02:01:45;5.95;;;3.60;;
69414;SDS011;56608;43.530;-5.652;2023-04-06T02:02:46;6.63;;;4.40;;
69414;SDS011;56608;43.530;-5.652;2023-04-06T02:03:47;7.10;;;3.90;;
69414;SDS011;56608;43.530;-5.652;2023-04-06T02:04:49;7.45;;;3.75;;
69414;SDS011;56608;43.530;-5.652;2023-04-06T02:05:50;5.90;;;3.83;;
69414;SDS011;56608;43.530;-5.652;2023-04-06T02:06:52;6.28;;;3.87;;
69414;SDS011;56608;43.530;-5.652;2023-04-06T02:07:53;7.82;;;3.85;;
69414;SDS011;56608;43.530;-5.652;2023-04-06T02:08:54;8.15;;;4.10;;
69414;SDS011;56608;43.530;-5.652;2023-04-06T02:09:55;9.00;;;4.20;;
69414;SDS011;56608;43.530;-5.652;2023-04-06T02:10:57;5.50;;;4.20;;
69414;SDS011;56608;43.530;-5.652;2023-04-06T02:11:58;7.40;;;4.63;;
69414;SDS011;56608;43.530;-5.652;2023-04-06T02:13:01;7.45;;;4.05;;
69414;SDS011;56608;43.530;-5.652;2023-04-06T02:14:02;5.25;;;4.15;;
69414;SDS011;56608;43.530;-5.652;2023-04-06T02:15:04;7.13;;;4.03;;
69414;SDS011;56608;43.530;-5.652;2023-04-06T02:16:06;6.12;;;3.97;;
69414;SDS011;56608;43.530;-5.652;2023-04-06T02:17:06;7.90;;;4.35;;
69414;SDS011;56608;43.530;-5.652;2023-04-06T02:18:08;5.60;;;3.50;;
69414;SDS011;56608;43.530;-5.652;2023-04-06T02:19:10;8.40;;;4.00;;
69414;SDS011;56608;43.530;-5.652;2023-04-06T02:20:12;8.07;;;3.80;;
69414;SDS011;56608;43.530;-5.652;2023-04-06T02:22:15;4.62;;;3.53;;
69414;SDS011;56608;43.530;-5.652;2023-04-06T02:23:16;9.07;;;3.97;;
69414;SDS011;56608;43.530;-5.652;2023-04-06T02:24:17;6.05;;;3.70;;
69414;SDS011;56608;43.530;-5.652;2023-04-06T02:25:19;5.80;;;4.12;;
69414;SDS011;56608;43.530;-5.652;2023-04-06T02:26:20;6.83;;;3.70;;
69414;SDS011;56608;43.530;-5.652;2023-04-06T02:27:22;7.50;;;4.00;;
69414;SDS011;56608;43.530;-5.652;2023-04-06T02:29:24;6.85;;;4.05;;
69414;SDS011;56608;43.530;-5.652;2023-04-06T02:30:25;6.80;;;3.80;;
69414;SDS011;56608;43.530;-5.652;2023-04-06T02:31:27;6.32;;;3.55;;
69414;SDS011;56608;43.530;-5.652;2023-04-06T02:32:29;6.12;;;3.67;;
69414;SDS011;56608;43.530;-5.652;2023-04-06T02:33:29;7.30;;;3.70;;
69414;SDS011;56608;43.530;-5.652;2023-04-06T02:34:31;5.55;;;3.45;;
69414;SDS011;56608;43.530;-5.652;2023-04-06T02:35:32;5.62;;;3.40;;
69414;SDS011;56608;43.530;-5.652;2023-04-06T02:36:33;5.50;;;3.33;;
69414;SDS011;56608;43.530;-5.652;2023-04-06T02:37:35;5.85;;;3.50;;
69414;SDS011;56608;43.530;-5.652;2023-04-06T02:38:36;6.53;;;3.47;;
69414;SDS011;56608;43.530;-5.652;2023-04-06T02:39:38;6.93;;;3.70;;
69414;SDS011;56608;43.530;-5.652;2023-04-06T02:40:39;5.68;;;3.37;;
69414;SDS011;56608;43.530;-5.652;2023-04-06T02:41:41;4.87;;;3.30;;
69414;SDS011;56608;43.530;-5.652;2023-04-06T02:42:42;6.68;;;3.50;;
69414;SDS011;56608;43.530;-5.652;2023-04-06T02:43:44;4.30;;;3.10;;
69414;SDS011;56608;43.530;-5.652;2023-04-06T02:44:45;5.53;;;3.40;;
69414;SDS011;56608;43.530;-5.652;2023-04-06T02:45:47;6.62;;;3.33;;
69414;SDS011;56608;43.530;-5.652;2023-04-06T02:46:48;4.57;;;3.23;;
69414;SDS011;56608;43.530;-5.652;2023-04-06T02:47:50;5.07;;;3.40;;
69414;SDS011;56608;43.530;-5.652;2023-04-06T02:48:51;7.12;;;3.83;;
69414;SDS011;56608;43.530;-5.652;2023-04-06T02:49:53;7.72;;;4.05;;
69414;SDS011;56608;43.530;-5.652;2023-04-06T02:50:54;7.62;;;3.47;;
69414;SDS011;56608;43.530;-5.652;2023-04-06T02:51:56;9.10;;;3.80;;
69414;SDS011;56608;43.530;-5.652;2023-04-06T02:52:57;7.00;;;3.90;;
69414;SDS011;56608;43.530;-5.652;2023-04-06T02:53:59;6.32;;;3.90;;
69414;SDS011;56608;43.530;-5.652;2023-04-06T02:55:00;6.03;;;4.23;;
69414;SDS011;56608;43.530;-5.652;2023-04-06T02:56:02;8.52;;;4.20;;
69414;SDS011;56608;43.530;-5.652;2023-04-06T02:57:03;8.07;;;4.07;;
69414;SDS011;56608;43.530;-5.652;2023-04-06T02:58:05;6.85;;;4.28;;
69414;SDS011;56608;43.530;-5.652;2023-04-06T02:59:06;9.30;;;4.33;;
69414;SDS011;56608;43.530;-5.652;2023-04-06T03:00:08;7.65;;;3.90;;
69414;SDS011;56608;43.530;-5.652;2023-04-06T03:01:10;6.25;;;4.00;;
69414;SDS011;56608;43.530;-5.652;2023-04-06T03:02:11;8.30;;;4.22;;
69414;SDS011;56608;43.530;-5.652;2023-04-06T03:03:13;6.40;;;4.03;;
69414;SDS011;56608;43.530;-5.652;2023-04-06T03:04:14;6.00;;;4.20;;
69414;SDS011;56608;43.530;-5.652;2023-04-06T03:05:16;8.95;;;4.15;;
69414;SDS011;56608;43.530;-5.652;2023-04-06T03:06:20;7.10;;;4.15;;
69414;SDS011;56608;43.530;-5.652;2023-04-06T03:07:21;8.97;;;4.50;;
69414;SDS011;56608;43.530;-5.652;2023-04-06T03:08:23;6.45;;;4.20;;
69414;SDS011;56608;43.530;-5.652;2023-04-06T03:09:24;7.30;;;4.30;;
69414;SDS011;56608;43.530;-5.652;2023-04-06T03:10:25;7.30;;;4.00;;
69414;SDS011;56608;43.530;-5.652;2023-04-06T03:11:27;8.10;;;4.20;;
69414;SDS011;56608;43.530;-5.652;2023-04-06T03:12:28;7.20;;;4.40;;
69414;SDS011;56608;43.530;-5.652;2023-04-06T03:13:30;7.00;;;4.70;;
69414;SDS011;56608;43.530;-5.652;2023-04-06T03:14:30;11.33;;;5.07;;
69414;SDS011;56608;43.530;-5.652;2023-04-06T03:15:32;6.65;;;4.45;;
69414;SDS011;56608;43.530;-5.652;2023-04-06T03:16:33;7.65;;;4.97;;
69414;SDS011;56608;43.530;-5.652;2023-04-06T03:17:35;6.53;;;5.18;;
69414;SDS011;56608;43.530;-5.652;2023-04-06T03:18:37;11.60;;;5.27;;
69414;SDS011;56608;43.530;-5.652;2023-04-06T03:19:38;7.40;;;6.05;;
69414;SDS011;56608;43.530;-5.652;2023-04-06T03:20:39;8.13;;;5.53;;
69414;SDS011;56608;43.530;-5.652;2023-04-06T03:21:41;11.07;;;5.60;;
69414;SDS011;56608;43.530;-5.652;2023-04-06T03:23:42;14.45;;;6.00;;
69414;SDS011;56608;43.530;-5.652;2023-04-06T03:24:44;9.90;;;5.87;;
69414;SDS011;56608;43.530;-5.652;2023-04-06T03:25:46;8.80;;;6.10;;
69414;SDS011;56608;43.530;-5.652;2023-04-06T03:26:47;8.77;;;5.82;;
69414;SDS011;56608;43.530;-5.652;2023-04-06T03:27:48;9.10;;;5.68;;
69414;SDS011;56608;43.530;-5.652;2023-04-06T03:28:50;9.80;;;6.40;;
69414;SDS011;56608;43.530;-5.652;2023-04-06T03:29:51;11.40;;;6.10;;
69414;SDS011;56608;43.530;-5.652;2023-04-06T03:30:53;10.70;;;5.62;;
69414;SDS011;56608;43.530;-5.652;2023-04-06T03:31:54;12.00;;;6.35;;
69414;SDS011;56608;43.530;-5.652;2023-04-06T03:32:56;8.52;;;5.90;;
69414;SDS011;56608;43.530;-5.652;2023-04-06T03:33:57;10.02;;;5.18;;
69414;SDS011;56608;43.530;-5.652;2023-04-06T03:34:59;12.60;;;5.32;;
69414;SDS011;56608;43.530;-5.652;2023-04-06T03:36:01;7.40;;;4.10;;
69414;SDS011;56608;43.530;-5.652;2023-04-06T03:37:03;5.68;;;3.83;;
69414;SDS011;56608;43.530;-5.652;2023-04-06T03:38:03;7.40;;;4.30;;
69414;SDS011;56608;43.530;-5.652;2023-04-06T03:39:05;6.80;;;4.15;;
69414;SDS011;56608;43.530;-5.652;2023-04-06T03:40:07;9.10;;;4.50;;
69414;SDS011;56608;43.530;-5.652;2023-04-06T03:42:09;5.30;;;3.50;;
69414;SDS011;56608;43.530;-5.652;2023-04-06T03:43:11;6.10;;;3.37;;
69414;SDS011;56608;43.530;-5.652;2023-04-06T03:44:11;5.35;;;3.80;;
69414;SDS011;56608;43.530;-5.652;2023-04-06T03:45:13;5.60;;;3.85;;
69414;SDS011;56608;43.530;-5.652;2023-04-06T03:47:16;5.15;;;3.22;;
69414;SDS011;56608;43.530;-5.652;2023-04-06T03:48:17;7.43;;;3.33;;
69414;SDS011;56608;43.530;-5.652;2023-04-06T03:49:19;5.18;;;3.35;;
69414;SDS011;56608;43.530;-5.652;2023-04-06T03:50:20;5.68;;;3.33;;
69414;SDS011;56608;43.530;-5.652;2023-04-06T03:51:22;5.30;;;3.50;;
69414;SDS011;56608;43.530;-5.652;2023-04-06T03:52:22;6.85;;;3.70;;
69414;SDS011;56608;43.530;-5.652;2023-04-06T03:53:24;4.22;;;3.55;;
69414;SDS011;56608;43.530;-5.652;2023-04-06T03:54:26;5.90;;;3.40;;
69414;SDS011;56608;43.530;-5.652;2023-04-06T03:55:27;6.23;;;3.50;;
69414;SDS011;56608;43.530;-5.652;2023-04-06T03:56:28;6.10;;;3.65;;
69414;SDS011;56608;43.530;-5.652;2023-04-06T03:57:30;6.45;;;3.70;;
69414;SDS011;56608;43.530;-5.652;2023-04-06T03:58:31;10.15;;;4.30;;
69414;SDS011;56608;43.530;-5.652;2023-04-06T03:59:33;7.00;;;3.65;;
69414;SDS011;56608;43.530;-5.652;2023-04-06T04:00:33;4.63;;;3.37;;
69414;SDS011;56608;43.530;-5.652;2023-04-06T04:01:35;7.72;;;4.00;;
69414;SDS011;56608;43.530;-5.652;2023-04-06T04:02:37;4.78;;;3.67;;
69414;SDS011;56608;43.530;-5.652;2023-04-06T04:03:38;7.93;;;3.90;;
69414;SDS011;56608;43.530;-5.652;2023-04-06T04:04:39;8.10;;;4.30;;
69414;SDS011;56608;43.530;-5.652;2023-04-06T04:05:40;9.60;;;4.80;;
69414;SDS011;56608;43.530;-5.652;2023-04-06T04:06:42;9.60;;;5.43;;
69414;SDS011;56608;43.530;-5.652;2023-04-06T04:07:43;8.07;;;4.90;;
69414;SDS011;56608;43.530;-5.652;2023-04-06T04:08:45;10.37;;;4.67;;
69414;SDS011;56608;43.530;-5.652;2023-04-06T04:09:46;9.77;;;4.93;;
69414;SDS011;56608;43.530;-5.652;2023-04-06T04:10:47;6.60;;;4.67;;
69414;SDS011;56608;43.530;-5.652;2023-04-06T04:11:48;6.18;;;4.72;;
69414;SDS011;56608;43.530;-5.652;2023-04-06T04:12:49;10.85;;;5.05;;
69414;SDS011;56608;43.530;-5.652;2023-04-06T04:13:51;7.70;;;4.60;;
69414;SDS011;56608;43.530;-5.652;2023-04-06T04:14:52;8.05;;;5.03;;
69414;SDS011;56608;43.530;-5.652;2023-04-06T04:15:54;8.40;;;5.10;;
69414;SDS011;56608;43.530;-5.652;2023-04-06T04:16:55;8.60;;;5.20;;
69414;SDS011;56608;43.530;-5.652;2023-04-06T04:17:57;8.57;;;4.97;;
69414;SDS011;56608;43.530;-5.652;2023-04-06T04:18:58;8.88;;;4.82;;
69414;SDS011;56608;43.530;-5.652;2023-04-06T04:20:00;7.37;;;4.55;;
69414;SDS011;56608;43.530;-5.652;2023-04-06T04:21:01;8.50;;;5.10;;
69414;SDS011;56608;43.530;-5.652;2023-04-06T04:22:02;8.32;;;5.18;;
69414;SDS011;56608;43.530;-5.652;2023-04-06T04:23:07;9.25;;;4.85;;
69414;SDS011;56608;43.530;-5.652;2023-04-06T04:24:08;9.25;;;4.85;;
69414;SDS011;56608;43.530;-5.652;2023-04-06T04:25:09;7.40;;;5.20;;
69414;SDS011;56608;43.530;-5.652;2023-04-06T04:26:11;12.73;;;5.60;;
69414;SDS011;56608;43.530;-5.652;2023-04-06T04:27:12;9.05;;;5.35;;
69414;SDS011;56608;43.530;-5.652;2023-04-06T04:28:13;8.35;;;5.10;;
69414;SDS011;56608;43.530;-5.652;2023-04-06T04:29:15;7.72;;;5.10;;
69414;SDS011;56608;43.530;-5.652;2023-04-06T04:30:17;9.48;;;5.00;;
69414;SDS011;56608;43.530;-5.652;2023-04-06T04:31:19;7.93;;;4.95;;
69414;SDS011;56608;43.530;-5.652;2023-04-06T04:32:22;8.05;;;5.30;;
69414;SDS011;56608;43.530;-5.652;2023-04-06T04:33:28;13.38;;;5.45;;
69414;SDS011;56608;43.530;-5.652;2023-04-06T04:34:29;8.10;;;5.20;;
69414;SDS011;56608;43.530;-5.652;2023-04-06T04:35:31;9.57;;;5.00;;
69414;SDS011;56608;43.530;-5.652;2023-04-06T04:36:32;9.07;;;5.78;;
69414;SDS011;56608;43.530;-5.652;2023-04-06T04:37:33;7.80;;;5.30;;
69414;SDS011;56608;43.530;-5.652;2023-04-06T04:38:36;9.15;;;5.20;;
69414;SDS011;56608;43.530;-5.652;2023-04-06T04:39:36;8.60;;;5.75;;
69414;SDS011;56608;43.530;-5.652;2023-04-06T04:40:38;8.80;;;5.65;;
69414;SDS011;56608;43.530;-5.652;2023-04-06T04:41:39;10.13;;;5.57;;
69414;SDS011;56608;43.530;-5.652;2023-04-06T04:42:41;7.60;;;4.60;;
69414;SDS011;56608;43.530;-5.652;2023-04-06T04:43:42;9.25;;;5.12;;
69414;SDS011;56608;43.530;-5.652;2023-04-06T04:44:44;12.05;;;5.10;;
69414;SDS011;56608;43.530;-5.652;2023-04-06T04:45:45;12.82;;;5.93;;
69414;SDS011;56608;43.530;-5.652;2023-04-06T04:46:46;9.90;;;6.50;;
69414;SDS011;56608;43.530;-5.652;2023-04-06T04:47:47;8.27;;;5.00;;
69414;SDS011;56608;43.530;-5.652;2023-04-06T04:48:49;7.20;;;4.55;;
69414;SDS011;56608;43.530;-5.652;2023-04-06T04:49:50;10.75;;;5.15;;
69414;SDS011;56608;43.530;-5.652;2023-04-06T04:50:52;5.97;;;4.80;;
69414;SDS011;56608;43.530;-5.652;2023-04-06T04:51:53;8.35;;;5.15;;
69414;SDS011;56608;43.530;-5.652;2023-04-06T04:52:54;9.30;;;5.20;;
69414;SDS011;56608;43.530;-5.652;2023-04-06T04:53:56;6.50;;;5.18;;
69414;SDS011;56608;43.530;-5.652;2023-04-06T04:54:57;6.75;;;5.55;;
69414;SDS011;56608;43.530;-5.652;2023-04-06T04:55:58;8.05;;;5.90;;
69414;SDS011;56608;43.530;-5.652;2023-04-06T04:57:00;10.25;;;6.18;;
69414;SDS011;56608;43.530;-5.652;2023-04-06T04:58:01;10.45;;;6.45;;
69414;SDS011;56608;43.530;-5.652;2023-04-06T04:59:03;10.27;;;6.25;;
69414;SDS011;56608;43.530;-5.652;2023-04-06T05:00:05;11.65;;;6.53;;
69414;SDS011;56608;43.530;-5.652;2023-04-06T05:01:07;10.15;;;6.03;;
69414;SDS011;56608;43.530;-5.652;2023-04-06T05:02:09;8.63;;;5.87;;
69414;SDS011;56608;43.530;-5.652;2023-04-06T05:03:14;11.12;;;5.55;;
69414;SDS011;56608;43.530;-5.652;2023-04-06T05:04:21;11.48;;;5.20;;
69414;SDS011;56608;43.530;-5.652;2023-04-06T05:05:23;7.25;;;5.00;;
69414;SDS011;56608;43.530;-5.652;2023-04-06T05:06:24;7.35;;;4.80;;
69414;SDS011;56608;43.530;-5.652;2023-04-06T05:07:26;7.00;;;4.78;;
69414;SDS011;56608;43.530;-5.652;2023-04-06T05:08:30;10.23;;;4.87;;
69414;SDS011;56608;43.530;-5.652;2023-04-06T05:10:34;7.55;;;4.75;;
69414;SDS011;56608;43.530;-5.652;2023-04-06T05:11:36;10.68;;;5.10;;
69414;SDS011;56608;43.530;-5.652;2023-04-06T05:12:37;8.60;;;4.80;;
69414;SDS011;56608;43.530;-5.652;2023-04-06T05:13:39;6.03;;;4.72;;
69414;SDS011;56608;43.530;-5.652;2023-04-06T05:14:40;9.30;;;5.15;;
69414;SDS011;56608;43.530;-5.652;2023-04-06T05:15:42;7.80;;;4.95;;
69414;SDS011;56608;43.530;-5.652;2023-04-06T05:16:44;7.03;;;5.00;;
69414;SDS011;56608;43.530;-5.652;2023-04-06T05:17:45;7.70;;;4.70;;
69414;SDS011;56608;43.530;-5.652;2023-04-06T05:18:47;7.60;;;4.50;;
69414;SDS011;56608;43.530;-5.652;2023-04-06T05:19:49;8.38;;;5.03;;
69414;SDS011;56608;43.530;-5.652;2023-04-06T05:20:51;7.35;;;4.60;;
69414;SDS011;56608;43.530;-5.652;2023-04-06T05:21:52;6.78;;;4.40;;
69414;SDS011;56608;43.530;-5.652;2023-04-06T05:22:54;8.35;;;5.40;;
69414;SDS011;56608;43.530;-5.652;2023-04-06T05:23:55;7.00;;;5.00;;
69414;SDS011;56608;43.530;-5.652;2023-04-06T05:24:56;8.60;;;4.85;;
69414;SDS011;56608;43.530;-5.652;2023-04-06T05:25:58;8.57;;;4.80;;
69414;SDS011;56608;43.530;-5.652;2023-04-06T05:26:59;10.05;;;5.37;;
69414;SDS011;56608;43.530;-5.652;2023-04-06T05:28:01;7.35;;;4.45;;
69414;SDS011;56608;43.530;-5.652;2023-04-06T05:29:02;6.40;;;4.87;;
69414;SDS011;56608;43.530;-5.652;2023-04-06T05:30:04;7.35;;;4.40;;
69414;SDS011;56608;43.530;-5.652;2023-04-06T05:31:07;7.10;;;4.20;;
69414;SDS011;56608;43.530;-5.652;2023-04-06T05:32:08;8.40;;;5.22;;
69414;SDS011;56608;43.530;-5.652;2023-04-06T05:34:11;7.93;;;4.57;;
69414;SDS011;56608;43.530;-5.652;2023-04-06T05:35:13;6.28;;;4.60;;
69414;SDS011;56608;43.530;-5.652;2023-04-06T05:36:15;8.45;;;5.00;;
69414;SDS011;56608;43.530;-5.652;2023-04-06T05:37:16;7.90;;;4.78;;
69414;SDS011;56608;43.530;-5.652;2023-04-06T05:38:17;8.77;;;4.60;;
69414;SDS011;56608;43.530;-5.652;2023-04-06T05:39:19;8.43;;;5.15;;
69414;SDS011;56608;43.530;-5.652;2023-04-06T05:40:21;8.18;;;4.90;;
69414;SDS011;56608;43.530;-5.652;2023-04-06T05:41:22;6.80;;;4.45;;
69414;SDS011;56608;43.530;-5.652;2023-04-06T05:43:24;8.85;;;5.10;;
69414;SDS011;56608;43.530;-5.652;2023-04-06T05:44:26;8.05;;;4.60;;
69414;SDS011;56608;43.530;-5.652;2023-04-06T05:45:27;5.72;;;4.15;;
69414;SDS011;56608;43.530;-5.652;2023-04-06T05:46:28;9.40;;;4.80;;
69414;SDS011;56608;43.530;-5.652;2023-04-06T05:47:30;8.55;;;5.10;;
69414;SDS011;56608;43.530;-5.652;2023-04-06T05:48:31;7.40;;;4.20;;
69414;SDS011;56608;43.530;-5.652;2023-04-06T05:49:33;8.95;;;4.55;;
69414;SDS011;56608;43.530;-5.652;2023-04-06T05:50:35;8.70;;;4.60;;
69414;SDS011;56608;43.530;-5.652;2023-04-06T05:51:36;7.57;;;4.30;;
69414;SDS011;56608;43.530;-5.652;2023-04-06T05:52:38;9.00;;;4.70;;
69414;SDS011;56608;43.530;-5.652;2023-04-06T05:53:39;7.13;;;4.30;;
69414;SDS011;56608;43.530;-5.652;2023-04-06T05:54:41;7.57;;;4.78;;
69414;SDS011;56608;43.530;-5.652;2023-04-06T05:55:41;5.80;;;4.30;;
69414;SDS011;56608;43.530;-5.652;2023-04-06T05:56:43;8.27;;;4.12;;
69414;SDS011;56608;43.530;-5.652;2023-04-06T05:57:44;5.95;;;4.00;;
69414;SDS011;56608;43.530;-5.652;2023-04-06T05:58:46;7.65;;;4.60;;
69414;SDS011;56608;43.530;-5.652;2023-04-06T05:59:47;8.07;;;4.25;;
69414;SDS011;56608;43.530;-5.652;2023-04-06T06:00:48;6.80;;;4.55;;
69414;SDS011;56608;43.530;-5.652;2023-04-06T06:01:50;6.68;;;4.32;;
69414;SDS011;56608;43.530;-5.652;2023-04-06T06:02:51;5.97;;;4.30;;
69414;SDS011;56608;43.530;-5.652;2023-04-06T06:03:52;5.45;;;4.20;;
69414;SDS011;56608;43.530;-5.652;2023-04-06T06:04:54;7.65;;;4.40;;
69414;SDS011;56608;43.530;-5.652;2023-04-06T06:05:59;8.25;;;5.03;;
69414;SDS011;56608;43.530;-5.652;2023-04-06T06:07:04;7.00;;;4.47;;
69414;SDS011;56608;43.530;-5.652;2023-04-06T06:08:06;6.03;;;4.20;;
69414;SDS011;56608;43.530;-5.652;2023-04-06T06:09:08;6.70;;;4.07;;
69414;SDS011;56608;43.530;-5.652;2023-04-06T06:10:09;4.60;;;3.80;;
69414;SDS011;56608;43.530;-5.652;2023-04-06T06:11:11;10.02;;;4.40;;
69414;SDS011;56608;43.530;-5.652;2023-04-06T06:12:12;8.32;;;4.12;;
69414;SDS011;56608;43.530;-5.652;2023-04-06T06:13:14;7.30;;;3.72;;
69414;SDS011;56608;43.530;-5.652;2023-04-06T06:14:18;6.72;;;4.00;;
69414;SDS011;56608;43.530;-5.652;2023-04-06T06:15:22;7.95;;;3.90;;
69414;SDS011;56608;43.530;-5.652;2023-04-06T06:16:23;8.77;;;4.30;;
69414;SDS011;56608;43.530;-5.652;2023-04-06T06:17:28;7.90;;;3.95;;
69414;SDS011;56608;43.530;-5.652;2023-04-06T06:18:29;5.85;;;4.12;;